sensor_id;sensor_type;location;lat;lon;timestamp;P1;durP1;ratioP1;P2;durP2;ratioP2
61144;SDS011;47026;51.208;3.288;2022-10-23T00:01:12;16.95;;;7.07;;
61144;SDS011;47026;51.208;3.288;2022-10-23T00:03:38;13.52;;;7.05;;
61144;SDS011;47026;51.208;3.288;2022-10-23T00:08:30;14.23;;;7.03;;
61144;SDS011;47026;51.208;3.288;2022-10-23T00:13:22;17.10;;;7.35;;
61144;SDS011;47026;51.208;3.288;2022-10-23T00:15:48;15.23;;;6.80;;
61144;SDS011;47026;51.208;3.288;2022-10-23T00:20:39;14.77;;;7.35;;
61144;SDS011;47026;51.208;3.288;2022-10-23T00:25:31;14.70;;;7.18;;
61144;SDS011;47026;51.208;3.288;2022-10-23T00:27:57;12.73;;;7.45;;
61144;SDS011;47026;51.208;3.288;2022-10-23T00:30:23;14.85;;;7.00;;
61144;SDS011;47026;51.208;3.288;2022-10-23T00:35:15;11.68;;;7.00;;
61144;SDS011;47026;51.208;3.288;2022-10-23T00:40:07;15.13;;;6.62;;
61144;SDS011;47026;51.208;3.288;2022-10-23T00:42:33;14.90;;;7.03;;
61144;SDS011;47026;51.208;3.288;2022-10-23T00:47:37;13.62;;;7.28;;
61144;SDS011;47026;51.208;3.288;2022-10-23T00:52:29;13.98;;;7.22;;
61144;SDS011;47026;51.208;3.288;2022-10-23T00:54:56;14.73;;;6.72;;
61144;SDS011;47026;51.208;3.288;2022-10-23T00:57:23;12.48;;;7.90;;
61144;SDS011;47026;51.208;3.288;2022-10-23T01:02:14;12.75;;;6.70;;
61144;SDS011;47026;51.208;3.288;2022-10-23T01:07:14;11.93;;;7.15;;
61144;SDS011;47026;51.208;3.288;2022-10-23T01:21:40;13.75;;;6.72;;
61144;SDS011;47026;51.208;3.288;2022-10-23T01:23:46;12.27;;;7.40;;
61144;SDS011;47026;51.208;3.288;2022-10-23T01:32:08;11.35;;;7.10;;
61144;SDS011;47026;51.208;3.288;2022-10-23T01:37:41;12.55;;;6.90;;
61144;SDS011;47026;51.208;3.288;2022-10-23T01:40:13;17.02;;;7.12;;
61144;SDS011;47026;51.208;3.288;2022-10-23T01:42:58;16.20;;;7.40;;
61144;SDS011;47026;51.208;3.288;2022-10-23T01:45:49;11.12;;;7.03;;
61144;SDS011;47026;51.208;3.288;2022-10-23T01:48:21;12.00;;;7.15;;
61144;SDS011;47026;51.208;3.288;2022-10-23T01:50:52;10.90;;;6.28;;
61144;SDS011;47026;51.208;3.288;2022-10-23T01:53:22;12.20;;;7.30;;
61144;SDS011;47026;51.208;3.288;2022-10-23T01:55:54;13.57;;;6.97;;
61144;SDS011;47026;51.208;3.288;2022-10-23T01:58:23;11.52;;;6.65;;
61144;SDS011;47026;51.208;3.288;2022-10-23T02:00:51;12.27;;;6.32;;
61144;SDS011;47026;51.208;3.288;2022-10-23T02:03:20;10.70;;;6.65;;
61144;SDS011;47026;51.208;3.288;2022-10-23T02:05:47;14.77;;;6.68;;
61144;SDS011;47026;51.208;3.288;2022-10-23T02:08:13;12.05;;;6.35;;
61144;SDS011;47026;51.208;3.288;2022-10-23T02:13:28;10.40;;;5.93;;
61144;SDS011;47026;51.208;3.288;2022-10-23T02:21:26;13.93;;;6.47;;
61144;SDS011;47026;51.208;3.288;2022-10-23T02:24:06;14.85;;;6.45;;
61144;SDS011;47026;51.208;3.288;2022-10-23T02:26:39;12.35;;;6.43;;
61144;SDS011;47026;51.208;3.288;2022-10-23T02:29:15;14.40;;;6.45;;
61144;SDS011;47026;51.208;3.288;2022-10-23T02:31:48;9.75;;;6.12;;
61144;SDS011;47026;51.208;3.288;2022-10-23T02:36:40;9.43;;;5.78;;
61144;SDS011;47026;51.208;3.288;2022-10-23T02:39:06;10.27;;;6.25;;
61144;SDS011;47026;51.208;3.288;2022-10-23T02:41:55;9.80;;;6.25;;
61144;SDS011;47026;51.208;3.288;2022-10-23T02:44:42;10.15;;;6.35;;
61144;SDS011;47026;51.208;3.288;2022-10-23T02:52:47;9.57;;;5.57;;
61144;SDS011;47026;51.208;3.288;2022-10-23T02:58:28;10.60;;;5.35;;
61144;SDS011;47026;51.208;3.288;2022-10-23T03:01:01;9.75;;;5.35;;
61144;SDS011;47026;51.208;3.288;2022-10-23T03:03:34;9.77;;;5.35;;
61144;SDS011;47026;51.208;3.288;2022-10-23T03:06:03;9.23;;;5.30;;
61144;SDS011;47026;51.208;3.288;2022-10-23T03:08:39;10.00;;;5.43;;
61144;SDS011;47026;51.208;3.288;2022-10-23T03:11:06;10.05;;;5.05;;
61144;SDS011;47026;51.208;3.288;2022-10-23T03:15:57;9.00;;;4.53;;
61144;SDS011;47026;51.208;3.288;2022-10-23T03:18:23;10.20;;;4.78;;
61144;SDS011;47026;51.208;3.288;2022-10-23T03:23:14;9.55;;;4.70;;
61144;SDS011;47026;51.208;3.288;2022-10-23T03:28:06;10.25;;;4.62;;
61144;SDS011;47026;51.208;3.288;2022-10-23T03:32:58;8.43;;;4.53;;
61144;SDS011;47026;51.208;3.288;2022-10-23T03:37:49;13.50;;;4.97;;
61144;SDS011;47026;51.208;3.288;2022-10-23T03:42:41;12.07;;;5.37;;
61144;SDS011;47026;51.208;3.288;2022-10-23T03:47:32;7.05;;;4.32;;
61144;SDS011;47026;51.208;3.288;2022-10-23T03:49:59;7.47;;;4.37;;
61144;SDS011;47026;51.208;3.288;2022-10-23T03:52:26;8.38;;;3.92;;
61144;SDS011;47026;51.208;3.288;2022-10-23T03:54:52;8.02;;;4.93;;
61144;SDS011;47026;51.208;3.288;2022-10-23T03:59:43;9.05;;;4.57;;
61144;SDS011;47026;51.208;3.288;2022-10-23T04:04:35;8.93;;;4.15;;
61144;SDS011;47026;51.208;3.288;2022-10-23T04:09:26;10.30;;;4.32;;
61144;SDS011;47026;51.208;3.288;2022-10-23T04:11:54;6.70;;;4.03;;
61144;SDS011;47026;51.208;3.288;2022-10-23T04:14:20;8.65;;;4.45;;
61144;SDS011;47026;51.208;3.288;2022-10-23T04:19:11;5.93;;;4.18;;
61144;SDS011;47026;51.208;3.288;2022-10-23T04:24:03;12.40;;;4.50;;
61144;SDS011;47026;51.208;3.288;2022-10-23T04:26:29;8.25;;;4.62;;
61144;SDS011;47026;51.208;3.288;2022-10-23T04:31:21;7.93;;;4.20;;
61144;SDS011;47026;51.208;3.288;2022-10-23T04:36:12;8.57;;;4.07;;
61144;SDS011;47026;51.208;3.288;2022-10-23T04:41:04;9.77;;;4.15;;
61144;SDS011;47026;51.208;3.288;2022-10-23T04:43:30;7.20;;;4.10;;
61144;SDS011;47026;51.208;3.288;2022-10-23T04:48:22;7.43;;;3.62;;
61144;SDS011;47026;51.208;3.288;2022-10-23T04:53:20;8.02;;;4.03;;
61144;SDS011;47026;51.208;3.288;2022-10-23T04:55:50;7.75;;;4.30;;
61144;SDS011;47026;51.208;3.288;2022-10-23T04:58:17;11.63;;;4.10;;
61144;SDS011;47026;51.208;3.288;2022-10-23T05:00:44;7.37;;;4.03;;
61144;SDS011;47026;51.208;3.288;2022-10-23T05:03:10;8.48;;;3.87;;
61144;SDS011;47026;51.208;3.288;2022-10-23T05:05:36;11.40;;;4.40;;
61144;SDS011;47026;51.208;3.288;2022-10-23T05:10:28;7.82;;;4.50;;
61144;SDS011;47026;51.208;3.288;2022-10-23T05:12:54;9.73;;;4.15;;
61144;SDS011;47026;51.208;3.288;2022-10-23T05:17:46;7.22;;;3.90;;
61144;SDS011;47026;51.208;3.288;2022-10-23T05:20:16;7.32;;;3.90;;
61144;SDS011;47026;51.208;3.288;2022-10-23T05:22:45;7.20;;;4.25;;
61144;SDS011;47026;51.208;3.288;2022-10-23T05:25:14;9.32;;;4.20;;
61144;SDS011;47026;51.208;3.288;2022-10-23T05:27:40;8.77;;;4.10;;
61144;SDS011;47026;51.208;3.288;2022-10-23T05:32:32;8.18;;;4.40;;
61144;SDS011;47026;51.208;3.288;2022-10-23T05:34:59;9.18;;;4.70;;
61144;SDS011;47026;51.208;3.288;2022-10-23T05:37:27;8.48;;;4.05;;
61144;SDS011;47026;51.208;3.288;2022-10-23T05:39:53;7.32;;;4.50;;
61144;SDS011;47026;51.208;3.288;2022-10-23T05:44:44;6.80;;;3.87;;
61144;SDS011;47026;51.208;3.288;2022-10-23T05:49:36;5.07;;;3.58;;
61144;SDS011;47026;51.208;3.288;2022-10-23T05:54:27;7.43;;;3.83;;
61144;SDS011;47026;51.208;3.288;2022-10-23T05:56:54;7.53;;;4.10;;
61144;SDS011;47026;51.208;3.288;2022-10-23T05:59:20;7.53;;;4.43;;
61144;SDS011;47026;51.208;3.288;2022-10-23T06:01:46;7.30;;;3.92;;
61144;SDS011;47026;51.208;3.288;2022-10-23T06:06:38;8.93;;;4.00;;
61144;SDS011;47026;51.208;3.288;2022-10-23T06:11:29;9.23;;;3.60;;
61144;SDS011;47026;51.208;3.288;2022-10-23T06:16:22;7.43;;;3.62;;
61144;SDS011;47026;51.208;3.288;2022-10-23T06:18:50;5.93;;;3.83;;
61144;SDS011;47026;51.208;3.288;2022-10-23T06:23:42;8.10;;;3.75;;
61144;SDS011;47026;51.208;3.288;2022-10-23T06:26:09;6.37;;;3.60;;
61144;SDS011;47026;51.208;3.288;2022-10-23T06:28:38;6.40;;;3.62;;
61144;SDS011;47026;51.208;3.288;2022-10-23T06:31:05;5.60;;;3.83;;
61144;SDS011;47026;51.208;3.288;2022-10-23T06:33:38;5.45;;;3.60;;
61144;SDS011;47026;51.208;3.288;2022-10-23T06:36:05;6.37;;;3.40;;
61144;SDS011;47026;51.208;3.288;2022-10-23T06:38:34;5.65;;;3.40;;
61144;SDS011;47026;51.208;3.288;2022-10-23T06:41:05;6.72;;;3.35;;
61144;SDS011;47026;51.208;3.288;2022-10-23T06:43:39;4.65;;;3.20;;
61144;SDS011;47026;51.208;3.288;2022-10-23T06:48:31;7.07;;;3.17;;
61144;SDS011;47026;51.208;3.288;2022-10-23T06:53:23;7.93;;;3.25;;
61144;SDS011;47026;51.208;3.288;2022-10-23T06:58:14;7.20;;;3.20;;
61144;SDS011;47026;51.208;3.288;2022-10-23T07:03:05;6.47;;;3.30;;
61144;SDS011;47026;51.208;3.288;2022-10-23T07:05:33;6.50;;;3.10;;
61144;SDS011;47026;51.208;3.288;2022-10-23T07:10:24;4.72;;;2.72;;
61144;SDS011;47026;51.208;3.288;2022-10-23T07:12:50;6.20;;;3.17;;
61144;SDS011;47026;51.208;3.288;2022-10-23T07:17:41;5.72;;;3.03;;
61144;SDS011;47026;51.208;3.288;2022-10-23T07:22:33;11.40;;;3.10;;
61144;SDS011;47026;51.208;3.288;2022-10-23T07:27:24;6.85;;;3.22;;
61144;SDS011;47026;51.208;3.288;2022-10-23T07:32:17;5.87;;;3.00;;
61144;SDS011;47026;51.208;3.288;2022-10-23T07:34:43;7.15;;;2.90;;
61144;SDS011;47026;51.208;3.288;2022-10-23T07:39:34;7.45;;;3.30;;
61144;SDS011;47026;51.208;3.288;2022-10-23T07:44:25;5.85;;;3.53;;
61144;SDS011;47026;51.208;3.288;2022-10-23T07:49:17;6.90;;;3.60;;
61144;SDS011;47026;51.208;3.288;2022-10-23T07:54:09;6.65;;;3.97;;
61144;SDS011;47026;51.208;3.288;2022-10-23T07:56:36;7.95;;;3.83;;
61144;SDS011;47026;51.208;3.288;2022-10-23T07:59:02;8.73;;;3.83;;
61144;SDS011;47026;51.208;3.288;2022-10-23T08:01:30;8.18;;;3.53;;
61144;SDS011;47026;51.208;3.288;2022-10-23T08:03:57;10.15;;;4.35;;
61144;SDS011;47026;51.208;3.288;2022-10-23T08:06:23;8.15;;;4.25;;
61144;SDS011;47026;51.208;3.288;2022-10-23T08:11:15;7.40;;;3.87;;
61144;SDS011;47026;51.208;3.288;2022-10-23T08:13:49;7.62;;;4.15;;
61144;SDS011;47026;51.208;3.288;2022-10-23T08:16:15;6.68;;;3.42;;
61144;SDS011;47026;51.208;3.288;2022-10-23T08:21:09;7.47;;;3.67;;
61144;SDS011;47026;51.208;3.288;2022-10-23T08:23:36;7.18;;;4.00;;
61144;SDS011;47026;51.208;3.288;2022-10-23T08:26:02;6.65;;;3.90;;
61144;SDS011;47026;51.208;3.288;2022-10-23T08:28:30;9.35;;;4.50;;
61144;SDS011;47026;51.208;3.288;2022-10-23T08:30:56;8.95;;;4.30;;
61144;SDS011;47026;51.208;3.288;2022-10-23T08:33:23;9.80;;;4.62;;
61144;SDS011;47026;51.208;3.288;2022-10-23T08:35:50;8.90;;;4.12;;
61144;SDS011;47026;51.208;3.288;2022-10-23T08:38:16;9.23;;;4.57;;
61144;SDS011;47026;51.208;3.288;2022-10-23T08:40:43;10.55;;;4.20;;
61144;SDS011;47026;51.208;3.288;2022-10-23T08:43:34;7.45;;;4.57;;
61144;SDS011;47026;51.208;3.288;2022-10-23T08:46:07;9.60;;;4.15;;
61144;SDS011;47026;51.208;3.288;2022-10-23T08:56:48;6.53;;;4.32;;
61144;SDS011;47026;51.208;3.288;2022-10-23T08:59:28;7.55;;;4.87;;
61144;SDS011;47026;51.208;3.288;2022-10-23T09:02:20;5.68;;;4.00;;
61144;SDS011;47026;51.208;3.288;2022-10-23T09:04:56;6.53;;;4.22;;
61144;SDS011;47026;51.208;3.288;2022-10-23T09:10:05;9.27;;;4.45;;
61144;SDS011;47026;51.208;3.288;2022-10-23T09:12:50;9.27;;;4.22;;
61144;SDS011;47026;51.208;3.288;2022-10-23T09:17:54;9.68;;;4.57;;
61144;SDS011;47026;51.208;3.288;2022-10-23T09:20:27;6.57;;;3.70;;
61144;SDS011;47026;51.208;3.288;2022-10-23T09:22:59;4.87;;;3.55;;
61144;SDS011;47026;51.208;3.288;2022-10-23T09:25:28;9.80;;;4.57;;
61144;SDS011;47026;51.208;3.288;2022-10-23T09:27:57;7.10;;;3.67;;
61144;SDS011;47026;51.208;3.288;2022-10-23T09:30:34;5.95;;;3.67;;
61144;SDS011;47026;51.208;3.288;2022-10-23T09:33:16;6.15;;;3.70;;
61144;SDS011;47026;51.208;3.288;2022-10-23T09:35:54;10.02;;;3.58;;
61144;SDS011;47026;51.208;3.288;2022-10-23T09:38:37;7.45;;;2.97;;
61144;SDS011;47026;51.208;3.288;2022-10-23T09:43:58;7.00;;;3.35;;
61144;SDS011;47026;51.208;3.288;2022-10-23T09:46:24;5.15;;;3.33;;
61144;SDS011;47026;51.208;3.288;2022-10-23T09:49:02;10.05;;;3.67;;
61144;SDS011;47026;51.208;3.288;2022-10-23T09:53:54;5.45;;;3.12;;
61144;SDS011;47026;51.208;3.288;2022-10-23T09:56:24;6.32;;;3.12;;
61144;SDS011;47026;51.208;3.288;2022-10-23T09:58:52;6.97;;;3.62;;
61144;SDS011;47026;51.208;3.288;2022-10-23T10:01:25;6.62;;;3.67;;
61144;SDS011;47026;51.208;3.288;2022-10-23T10:03:56;6.95;;;3.67;;
61144;SDS011;47026;51.208;3.288;2022-10-23T10:06:30;6.50;;;3.65;;
61144;SDS011;47026;51.208;3.288;2022-10-23T10:08:58;10.77;;;3.90;;
61144;SDS011;47026;51.208;3.288;2022-10-23T10:16:51;6.72;;;3.37;;
61144;SDS011;47026;51.208;3.288;2022-10-23T10:30:13;7.75;;;3.40;;
61144;SDS011;47026;51.208;3.288;2022-10-23T10:32:45;9.40;;;3.85;;
61144;SDS011;47026;51.208;3.288;2022-10-23T10:38:49;6.37;;;3.40;;
61144;SDS011;47026;51.208;3.288;2022-10-23T10:44:02;5.40;;;3.03;;
61144;SDS011;47026;51.208;3.288;2022-10-23T10:47:20;9.30;;;3.50;;
61144;SDS011;47026;51.208;3.288;2022-10-23T10:49:58;7.85;;;3.35;;
61144;SDS011;47026;51.208;3.288;2022-10-23T10:57:55;8.32;;;3.70;;
61144;SDS011;47026;51.208;3.288;2022-10-23T11:00:42;5.95;;;2.92;;
61144;SDS011;47026;51.208;3.288;2022-10-23T11:05:52;9.90;;;3.65;;
61144;SDS011;47026;51.208;3.288;2022-10-23T11:08:25;6.93;;;3.12;;
61144;SDS011;47026;51.208;3.288;2022-10-23T11:11:03;8.73;;;3.12;;
61144;SDS011;47026;51.208;3.288;2022-10-23T11:13:41;6.25;;;3.10;;
61144;SDS011;47026;51.208;3.288;2022-10-23T11:16:12;10.27;;;2.95;;
61144;SDS011;47026;51.208;3.288;2022-10-23T11:18:46;7.37;;;3.37;;
61144;SDS011;47026;51.208;3.288;2022-10-23T11:21:30;9.75;;;3.37;;
61144;SDS011;47026;51.208;3.288;2022-10-23T11:26:59;8.50;;;3.12;;
61144;SDS011;47026;51.208;3.288;2022-10-23T11:38:17;5.78;;;3.25;;
61144;SDS011;47026;51.208;3.288;2022-10-23T11:40:52;6.15;;;2.90;;
61144;SDS011;47026;51.208;3.288;2022-10-23T11:43:24;7.95;;;2.70;;
61144;SDS011;47026;51.208;3.288;2022-10-23T11:46:14;6.60;;;2.83;;
61144;SDS011;47026;51.208;3.288;2022-10-23T11:48:45;6.53;;;3.10;;
61144;SDS011;47026;51.208;3.288;2022-10-23T11:54:31;6.18;;;2.90;;
61144;SDS011;47026;51.208;3.288;2022-10-23T11:57:07;4.93;;;2.90;;
61144;SDS011;47026;51.208;3.288;2022-10-23T11:59:49;6.35;;;3.17;;
61144;SDS011;47026;51.208;3.288;2022-10-23T12:05:24;3.87;;;2.67;;
61144;SDS011;47026;51.208;3.288;2022-10-23T12:07:56;7.15;;;2.72;;
61144;SDS011;47026;51.208;3.288;2022-10-23T12:12:59;11.07;;;3.05;;
61144;SDS011;47026;51.208;3.288;2022-10-23T12:15:30;6.72;;;2.72;;
61144;SDS011;47026;51.208;3.288;2022-10-23T12:18:12;6.97;;;2.92;;
61144;SDS011;47026;51.208;3.288;2022-10-23T12:29:35;5.05;;;2.10;;
61144;SDS011;47026;51.208;3.288;2022-10-23T12:32:17;6.47;;;2.90;;
61144;SDS011;47026;51.208;3.288;2022-10-23T12:40:29;6.68;;;2.70;;
61144;SDS011;47026;51.208;3.288;2022-10-23T12:42:56;7.37;;;2.50;;
61144;SDS011;47026;51.208;3.288;2022-10-23T12:45:34;4.47;;;2.50;;
61144;SDS011;47026;51.208;3.288;2022-10-23T12:48:04;4.45;;;2.35;;
61144;SDS011;47026;51.208;3.288;2022-10-23T12:50:31;4.65;;;3.42;;
61144;SDS011;47026;51.208;3.288;2022-10-23T12:53:02;5.28;;;2.35;;
61144;SDS011;47026;51.208;3.288;2022-10-23T13:00:55;5.80;;;2.25;;
61144;SDS011;47026;51.208;3.288;2022-10-23T13:03:23;7.82;;;2.10;;
61144;SDS011;47026;51.208;3.288;2022-10-23T13:05:50;7.40;;;2.78;;
61144;SDS011;47026;51.208;3.288;2022-10-23T13:08:19;4.15;;;2.30;;
61144;SDS011;47026;51.208;3.288;2022-10-23T13:10:47;4.95;;;2.33;;
61144;SDS011;47026;51.208;3.288;2022-10-23T13:13:19;4.28;;;2.30;;
61144;SDS011;47026;51.208;3.288;2022-10-23T13:15:47;5.22;;;2.20;;
61144;SDS011;47026;51.208;3.288;2022-10-23T13:18:13;3.95;;;2.25;;
61144;SDS011;47026;51.208;3.288;2022-10-23T13:21:02;6.57;;;2.70;;
61144;SDS011;47026;51.208;3.288;2022-10-23T13:23:28;5.85;;;2.80;;
61144;SDS011;47026;51.208;3.288;2022-10-23T13:25:57;2.80;;;2.30;;
61144;SDS011;47026;51.208;3.288;2022-10-23T13:28:40;7.95;;;2.67;;
61144;SDS011;47026;51.208;3.288;2022-10-23T13:33:37;5.82;;;2.60;;
61144;SDS011;47026;51.208;3.288;2022-10-23T13:36:06;5.18;;;2.60;;
61144;SDS011;47026;51.208;3.288;2022-10-23T13:38:57;4.85;;;2.20;;
61144;SDS011;47026;51.208;3.288;2022-10-23T13:41:27;5.12;;;2.70;;
61144;SDS011;47026;51.208;3.288;2022-10-23T13:44:01;6.10;;;2.55;;
61144;SDS011;47026;51.208;3.288;2022-10-23T13:46:27;5.00;;;2.40;;
61144;SDS011;47026;51.208;3.288;2022-10-23T13:48:53;6.55;;;2.30;;
61144;SDS011;47026;51.208;3.288;2022-10-23T13:53:46;6.10;;;2.85;;
61144;SDS011;47026;51.208;3.288;2022-10-23T13:56:12;8.35;;;2.80;;
61144;SDS011;47026;51.208;3.288;2022-10-23T13:58:40;6.82;;;2.47;;
61144;SDS011;47026;51.208;3.288;2022-10-23T14:01:11;6.00;;;2.22;;
61144;SDS011;47026;51.208;3.288;2022-10-23T14:03:50;4.87;;;2.47;;
61144;SDS011;47026;51.208;3.288;2022-10-23T14:06:17;6.03;;;2.92;;
61144;SDS011;47026;51.208;3.288;2022-10-23T14:08:43;3.33;;;2.47;;
61144;SDS011;47026;51.208;3.288;2022-10-23T14:11:10;5.53;;;2.62;;
61144;SDS011;47026;51.208;3.288;2022-10-23T14:13:37;6.37;;;2.70;;
61144;SDS011;47026;51.208;3.288;2022-10-23T14:16:03;6.07;;;2.67;;
61144;SDS011;47026;51.208;3.288;2022-10-23T14:18:29;6.12;;;2.42;;
61144;SDS011;47026;51.208;3.288;2022-10-23T14:21:05;5.37;;;2.45;;
61144;SDS011;47026;51.208;3.288;2022-10-23T14:23:32;5.70;;;2.37;;
61144;SDS011;47026;51.208;3.288;2022-10-23T14:26:02;5.85;;;2.67;;
61144;SDS011;47026;51.208;3.288;2022-10-23T14:28:29;5.68;;;2.50;;
61144;SDS011;47026;51.208;3.288;2022-10-23T14:30:55;3.92;;;2.53;;
61144;SDS011;47026;51.208;3.288;2022-10-23T14:33:21;4.50;;;2.55;;
61144;SDS011;47026;51.208;3.288;2022-10-23T14:35:50;6.05;;;2.55;;
61144;SDS011;47026;51.208;3.288;2022-10-23T14:38:16;5.35;;;2.67;;
61144;SDS011;47026;51.208;3.288;2022-10-23T14:40:42;6.07;;;2.80;;
61144;SDS011;47026;51.208;3.288;2022-10-23T14:43:08;8.45;;;2.70;;
61144;SDS011;47026;51.208;3.288;2022-10-23T14:45:34;6.10;;;2.87;;
61144;SDS011;47026;51.208;3.288;2022-10-23T14:48:01;5.18;;;2.55;;
61144;SDS011;47026;51.208;3.288;2022-10-23T14:50:29;4.78;;;2.62;;
61144;SDS011;47026;51.208;3.288;2022-10-23T14:52:56;4.68;;;2.25;;
61144;SDS011;47026;51.208;3.288;2022-10-23T14:55:22;5.30;;;2.53;;
61144;SDS011;47026;51.208;3.288;2022-10-23T14:57:48;7.50;;;2.60;;
61144;SDS011;47026;51.208;3.288;2022-10-23T15:00:19;8.77;;;3.55;;
61144;SDS011;47026;51.208;3.288;2022-10-23T15:02:45;8.77;;;5.22;;
61144;SDS011;47026;51.208;3.288;2022-10-23T15:05:11;7.05;;;4.15;;
61144;SDS011;47026;51.208;3.288;2022-10-23T15:07:37;9.43;;;7.50;;
61144;SDS011;47026;51.208;3.288;2022-10-23T15:10:04;3.78;;;2.35;;
61144;SDS011;47026;51.208;3.288;2022-10-23T15:12:31;7.68;;;3.97;;
61144;SDS011;47026;51.208;3.288;2022-10-23T15:14:57;12.60;;;5.70;;
61144;SDS011;47026;51.208;3.288;2022-10-23T15:17:23;10.45;;;4.25;;
61144;SDS011;47026;51.208;3.288;2022-10-23T15:19:51;8.85;;;3.83;;
61144;SDS011;47026;51.208;3.288;2022-10-23T15:22:17;9.88;;;6.35;;
61144;SDS011;47026;51.208;3.288;2022-10-23T15:24:44;6.03;;;4.05;;
61144;SDS011;47026;51.208;3.288;2022-10-23T15:27:10;8.88;;;6.65;;
61144;SDS011;47026;51.208;3.288;2022-10-23T15:29:36;15.80;;;9.00;;
61144;SDS011;47026;51.208;3.288;2022-10-23T15:32:02;5.55;;;3.05;;
61144;SDS011;47026;51.208;3.288;2022-10-23T15:34:31;6.05;;;2.42;;
61144;SDS011;47026;51.208;3.288;2022-10-23T15:36:58;4.47;;;2.60;;
61144;SDS011;47026;51.208;3.288;2022-10-23T15:39:25;7.05;;;3.37;;
61144;SDS011;47026;51.208;3.288;2022-10-23T15:41:57;6.70;;;2.78;;
61144;SDS011;47026;51.208;3.288;2022-10-23T15:44:26;7.47;;;4.03;;
61144;SDS011;47026;51.208;3.288;2022-10-23T15:46:54;9.02;;;3.70;;
61144;SDS011;47026;51.208;3.288;2022-10-23T15:49:23;10.35;;;4.87;;
61144;SDS011;47026;51.208;3.288;2022-10-23T15:51:50;7.78;;;3.72;;
61144;SDS011;47026;51.208;3.288;2022-10-23T15:54:16;9.68;;;7.05;;
61144;SDS011;47026;51.208;3.288;2022-10-23T15:56:44;11.25;;;7.70;;
61144;SDS011;47026;51.208;3.288;2022-10-23T15:59:11;4.60;;;2.53;;
61144;SDS011;47026;51.208;3.288;2022-10-23T16:01:37;6.90;;;3.35;;
61144;SDS011;47026;51.208;3.288;2022-10-23T16:04:03;6.87;;;3.22;;
61144;SDS011;47026;51.208;3.288;2022-10-23T16:06:29;14.00;;;12.52;;
61144;SDS011;47026;51.208;3.288;2022-10-23T16:08:55;7.80;;;4.95;;
61144;SDS011;47026;51.208;3.288;2022-10-23T16:11:25;10.13;;;5.32;;
61144;SDS011;47026;51.208;3.288;2022-10-23T16:13:54;7.25;;;3.97;;
61144;SDS011;47026;51.208;3.288;2022-10-23T16:16:22;6.43;;;3.53;;
61144;SDS011;47026;51.208;3.288;2022-10-23T16:18:48;7.37;;;3.10;;
61144;SDS011;47026;51.208;3.288;2022-10-23T16:21:19;7.53;;;2.72;;
61144;SDS011;47026;51.208;3.288;2022-10-23T16:23:50;7.95;;;3.40;;
61144;SDS011;47026;51.208;3.288;2022-10-23T16:26:17;4.15;;;2.50;;
61144;SDS011;47026;51.208;3.288;2022-10-23T16:28:44;8.10;;;2.78;;
61144;SDS011;47026;51.208;3.288;2022-10-23T16:31:11;8.45;;;4.45;;
61144;SDS011;47026;51.208;3.288;2022-10-23T16:33:39;12.43;;;4.80;;
61144;SDS011;47026;51.208;3.288;2022-10-23T16:36:06;5.50;;;2.90;;
61144;SDS011;47026;51.208;3.288;2022-10-23T16:38:33;7.05;;;3.33;;
61144;SDS011;47026;51.208;3.288;2022-10-23T16:40:59;4.00;;;3.20;;
61144;SDS011;47026;51.208;3.288;2022-10-23T16:43:25;5.25;;;3.10;;
61144;SDS011;47026;51.208;3.288;2022-10-23T16:48:33;5.62;;;3.00;;
61144;SDS011;47026;51.208;3.288;2022-10-23T16:51:00;8.65;;;4.30;;
61144;SDS011;47026;51.208;3.288;2022-10-23T16:53:30;7.65;;;3.72;;
61144;SDS011;47026;51.208;3.288;2022-10-23T16:55:57;18.40;;;12.95;;
61144;SDS011;47026;51.208;3.288;2022-10-23T16:58:23;7.10;;;4.68;;
61144;SDS011;47026;51.208;3.288;2022-10-23T17:00:56;10.95;;;6.75;;
61144;SDS011;47026;51.208;3.288;2022-10-23T17:03:28;8.27;;;4.20;;
61144;SDS011;47026;51.208;3.288;2022-10-23T17:05:58;9.07;;;4.05;;
61144;SDS011;47026;51.208;3.288;2022-10-23T17:08:25;16.73;;;10.48;;
61144;SDS011;47026;51.208;3.288;2022-10-23T17:11:13;12.65;;;7.20;;
61144;SDS011;47026;51.208;3.288;2022-10-23T17:13:40;20.20;;;12.77;;
61144;SDS011;47026;51.208;3.288;2022-10-23T17:16:31;14.63;;;7.70;;
61144;SDS011;47026;51.208;3.288;2022-10-23T17:19:04;7.32;;;4.30;;
61144;SDS011;47026;51.208;3.288;2022-10-23T17:21:32;7.05;;;4.22;;
61144;SDS011;47026;51.208;3.288;2022-10-23T17:24:00;23.08;;;9.65;;
61144;SDS011;47026;51.208;3.288;2022-10-23T17:26:27;15.98;;;5.57;;
61144;SDS011;47026;51.208;3.288;2022-10-23T17:28:55;22.33;;;8.52;;
61144;SDS011;47026;51.208;3.288;2022-10-23T17:31:31;21.00;;;7.85;;
61144;SDS011;47026;51.208;3.288;2022-10-23T17:34:00;25.55;;;10.75;;
61144;SDS011;47026;51.208;3.288;2022-10-23T17:36:29;10.68;;;4.43;;
61144;SDS011;47026;51.208;3.288;2022-10-23T17:38:57;14.07;;;5.30;;
61144;SDS011;47026;51.208;3.288;2022-10-23T17:41:23;5.22;;;3.12;;
61144;SDS011;47026;51.208;3.288;2022-10-23T17:43:50;6.18;;;3.58;;
61144;SDS011;47026;51.208;3.288;2022-10-23T17:46:19;10.80;;;2.00;;
61144;SDS011;47026;51.208;3.288;2022-10-23T17:51:12;3.92;;;1.95;;
61144;SDS011;47026;51.208;3.288;2022-10-23T17:53:40;11.73;;;10.50;;
61144;SDS011;47026;51.208;3.288;2022-10-23T17:56:08;10.93;;;6.18;;
61144;SDS011;47026;51.208;3.288;2022-10-23T17:58:36;6.15;;;2.75;;
61144;SDS011;47026;51.208;3.288;2022-10-23T18:03:30;4.72;;;2.12;;
61144;SDS011;47026;51.208;3.288;2022-10-23T18:05:57;4.43;;;2.30;;
61144;SDS011;47026;51.208;3.288;2022-10-23T18:08:23;6.03;;;2.60;;
61144;SDS011;47026;51.208;3.288;2022-10-23T18:13:14;6.40;;;2.50;;
61144;SDS011;47026;51.208;3.288;2022-10-23T18:18:07;6.25;;;2.30;;
61144;SDS011;47026;51.208;3.288;2022-10-23T18:20:39;6.12;;;2.30;;
61144;SDS011;47026;51.208;3.288;2022-10-23T18:23:06;4.68;;;2.22;;
61144;SDS011;47026;51.208;3.288;2022-10-23T18:25:33;5.07;;;2.30;;
61144;SDS011;47026;51.208;3.288;2022-10-23T18:27:59;5.28;;;2.62;;
61144;SDS011;47026;51.208;3.288;2022-10-23T18:30:25;6.47;;;3.12;;
61144;SDS011;47026;51.208;3.288;2022-10-23T18:35:17;4.25;;;2.20;;
61144;SDS011;47026;51.208;3.288;2022-10-23T18:40:09;6.93;;;2.10;;
61144;SDS011;47026;51.208;3.288;2022-10-23T18:42:36;4.87;;;2.85;;
61144;SDS011;47026;51.208;3.288;2022-10-23T18:45:02;11.27;;;3.00;;
61144;SDS011;47026;51.208;3.288;2022-10-23T18:47:28;4.78;;;2.42;;
61144;SDS011;47026;51.208;3.288;2022-10-23T18:52:20;3.85;;;2.37;;
61144;SDS011;47026;51.208;3.288;2022-10-23T18:57:11;4.62;;;2.25;;
61144;SDS011;47026;51.208;3.288;2022-10-23T19:02:03;4.37;;;2.40;;
61144;SDS011;47026;51.208;3.288;2022-10-23T19:06:55;5.93;;;3.00;;
61144;SDS011;47026;51.208;3.288;2022-10-23T19:11:46;8.55;;;3.58;;
61144;SDS011;47026;51.208;3.288;2022-10-23T19:19:10;6.65;;;3.35;;
61144;SDS011;47026;51.208;3.288;2022-10-23T19:21:39;9.68;;;3.67;;
61144;SDS011;47026;51.208;3.288;2022-10-23T19:24:08;9.68;;;3.75;;
61144;SDS011;47026;51.208;3.288;2022-10-23T19:26:38;8.75;;;4.12;;
61144;SDS011;47026;51.208;3.288;2022-10-23T19:29:06;7.75;;;4.43;;
61144;SDS011;47026;51.208;3.288;2022-10-23T19:31:34;9.15;;;4.60;;
61144;SDS011;47026;51.208;3.288;2022-10-23T19:34:00;9.65;;;4.80;;
61144;SDS011;47026;51.208;3.288;2022-10-23T19:38:51;8.30;;;3.78;;
61144;SDS011;47026;51.208;3.288;2022-10-23T19:41:17;9.55;;;4.60;;
61144;SDS011;47026;51.208;3.288;2022-10-23T19:46:09;8.38;;;4.60;;
61144;SDS011;47026;51.208;3.288;2022-10-23T19:48:35;9.20;;;4.93;;
61144;SDS011;47026;51.208;3.288;2022-10-23T19:51:06;10.07;;;5.05;;
61144;SDS011;47026;51.208;3.288;2022-10-23T19:53:32;12.35;;;4.93;;
61144;SDS011;47026;51.208;3.288;2022-10-23T19:58:31;7.45;;;5.03;;